sensor_id;sensor_type;location;lat;lon;timestamp;temperature;humidity
12977;DHT22;6553;48.412;9.514;2023-08-08T00:01:21;20.50;71.70
12977;DHT22;6553;48.412;9.514;2023-08-08T00:03:47;20.50;71.70
12977;DHT22;6553;48.412;9.514;2023-08-08T00:06:13;20.50;71.60
12977;DHT22;6553;48.412;9.514;2023-08-08T00:08:39;20.50;71.70
12977;DHT22;6553;48.412;9.514;2023-08-08T00:11:04;20.50;71.70
12977;DHT22;6553;48.412;9.514;2023-08-08T00:13:30;20.50;71.70
12977;DHT22;6553;48.412;9.514;2023-08-08T00:15:56;20.50;72.50
12977;DHT22;6553;48.412;9.514;2023-08-08T00:18:22;20.50;71.70
12977;DHT22;6553;48.412;9.514;2023-08-08T00:20:47;20.50;71.80
12977;DHT22;6553;48.412;9.514;2023-08-08T00:23:13;20.50;71.70
12977;DHT22;6553;48.412;9.514;2023-08-08T00:25:39;20.50;71.70
12977;DHT22;6553;48.412;9.514;2023-08-08T00:28:05;20.50;71.80
12977;DHT22;6553;48.412;9.514;2023-08-08T00:30:31;20.50;71.70
12977;DHT22;6553;48.412;9.514;2023-08-08T00:32:56;20.50;71.80
12977;DHT22;6553;48.412;9.514;2023-08-08T00:35:22;20.50;71.70
12977;DHT22;6553;48.412;9.514;2023-08-08T00:37:48;20.50;71.70
12977;DHT22;6553;48.412;9.514;2023-08-08T00:40:14;20.50;71.70
12977;DHT22;6553;48.412;9.514;2023-08-08T00:42:40;20.50;71.70
12977;DHT22;6553;48.412;9.514;2023-08-08T00:45:06;20.50;71.70
12977;DHT22;6553;48.412;9.514;2023-08-08T00:47:32;20.40;71.60
12977;DHT22;6553;48.412;9.514;2023-08-08T00:50:01;20.50;71.60
12977;DHT22;6553;48.412;9.514;2023-08-08T00:52:28;20.50;71.70
12977;DHT22;6553;48.412;9.514;2023-08-08T00:54:55;20.50;71.50
12977;DHT22;6553;48.412;9.514;2023-08-08T00:57:21;20.50;71.60
12977;DHT22;6553;48.412;9.514;2023-08-08T00:59:47;20.50;71.60
12977;DHT22;6553;48.412;9.514;2023-08-08T01:02:14;20.50;71.70
12977;DHT22;6553;48.412;9.514;2023-08-08T01:04:40;20.50;71.60
12977;DHT22;6553;48.412;9.514;2023-08-08T01:10:04;20.50;71.60
12977;DHT22;6553;48.412;9.514;2023-08-08T01:12:41;20.50;71.70
12977;DHT22;6553;48.412;9.514;2023-08-08T01:15:10;20.50;71.70
12977;DHT22;6553;48.412;9.514;2023-08-08T01:17:39;20.50;71.70
12977;DHT22;6553;48.412;9.514;2023-08-08T01:20:06;20.50;71.70
12977;DHT22;6553;48.412;9.514;2023-08-08T01:22:45;20.50;71.70
12977;DHT22;6553;48.412;9.514;2023-08-08T01:25:36;20.50;71.60
12977;DHT22;6553;48.412;9.514;2023-08-08T01:28:04;20.50;71.60
12977;DHT22;6553;48.412;9.514;2023-08-08T01:30:30;20.50;71.60
12977;DHT22;6553;48.412;9.514;2023-08-08T01:32:56;20.50;71.60
12977;DHT22;6553;48.412;9.514;2023-08-08T01:35:22;20.40;71.50
12977;DHT22;6553;48.412;9.514;2023-08-08T01:37:59;20.40;71.90
12977;DHT22;6553;48.412;9.514;2023-08-08T01:40:32;20.50;71.60
12977;DHT22;6553;48.412;9.514;2023-08-08T01:42:59;20.50;71.60
12977;DHT22;6553;48.412;9.514;2023-08-08T01:45:25;20.40;71.50
12977;DHT22;6553;48.412;9.514;2023-08-08T01:47:51;20.40;71.60
12977;DHT22;6553;48.412;9.514;2023-08-08T01:50:18;20.40;71.60
12977;DHT22;6553;48.412;9.514;2023-08-08T01:52:43;20.40;71.50
12977;DHT22;6553;48.412;9.514;2023-08-08T01:55:09;20.40;71.50
12977;DHT22;6553;48.412;9.514;2023-08-08T01:57:35;20.40;71.50
12977;DHT22;6553;48.412;9.514;2023-08-08T02:00:01;20.50;71.60
12977;DHT22;6553;48.412;9.514;2023-08-08T02:02:40;20.50;71.60
12977;DHT22;6553;48.412;9.514;2023-08-08T02:05:06;20.40;71.40
12977;DHT22;6553;48.412;9.514;2023-08-08T02:07:32;20.40;71.40
12977;DHT22;6553;48.412;9.514;2023-08-08T02:09:59;20.40;71.40
12977;DHT22;6553;48.412;9.514;2023-08-08T02:12:25;20.40;71.40
12977;DHT22;6553;48.412;9.514;2023-08-08T02:14:51;20.40;71.40
12977;DHT22;6553;48.412;9.514;2023-08-08T02:17:17;20.40;71.40
12977;DHT22;6553;48.412;9.514;2023-08-08T02:19:43;20.40;71.50
12977;DHT22;6553;48.412;9.514;2023-08-08T02:22:09;20.40;71.60
12977;DHT22;6553;48.412;9.514;2023-08-08T02:24:34;20.40;71.50
12977;DHT22;6553;48.412;9.514;2023-08-08T02:27:00;20.40;71.50
12977;DHT22;6553;48.412;9.514;2023-08-08T02:29:26;20.40;71.50
12977;DHT22;6553;48.412;9.514;2023-08-08T02:31:52;20.40;71.50
12977;DHT22;6553;48.412;9.514;2023-08-08T02:34:17;20.40;71.50
12977;DHT22;6553;48.412;9.514;2023-08-08T02:36:43;20.40;71.60
12977;DHT22;6553;48.412;9.514;2023-08-08T02:39:09;20.40;71.50
12977;DHT22;6553;48.412;9.514;2023-08-08T02:41:35;20.40;71.50
12977;DHT22;6553;48.412;9.514;2023-08-08T02:44:01;20.40;71.50
12977;DHT22;6553;48.412;9.514;2023-08-08T02:46:27;20.40;71.50
12977;DHT22;6553;48.412;9.514;2023-08-08T02:48:53;20.40;71.50
12977;DHT22;6553;48.412;9.514;2023-08-08T02:51:18;20.40;71.40
12977;DHT22;6553;48.412;9.514;2023-08-08T02:53:44;20.40;71.40
12977;DHT22;6553;48.412;9.514;2023-08-08T02:56:10;20.40;71.40
12977;DHT22;6553;48.412;9.514;2023-08-08T02:58:39;20.40;71.50
12977;DHT22;6553;48.412;9.514;2023-08-08T03:01:06;20.40;71.50
12977;DHT22;6553;48.412;9.514;2023-08-08T03:03:32;20.40;71.40
12977;DHT22;6553;48.412;9.514;2023-08-08T03:05:58;20.40;71.50
12977;DHT22;6553;48.412;9.514;2023-08-08T03:08:26;20.40;71.40
12977;DHT22;6553;48.412;9.514;2023-08-08T03:10:53;20.40;71.50
12977;DHT22;6553;48.412;9.514;2023-08-08T03:13:19;20.40;71.40
12977;DHT22;6553;48.412;9.514;2023-08-08T03:15:46;20.40;71.50
12977;DHT22;6553;48.412;9.514;2023-08-08T03:18:12;20.40;71.50
12977;DHT22;6553;48.412;9.514;2023-08-08T03:20:37;20.40;71.50
12977;DHT22;6553;48.412;9.514;2023-08-08T03:23:05;20.40;71.50
12977;DHT22;6553;48.412;9.514;2023-08-08T03:25:31;20.40;71.50
12977;DHT22;6553;48.412;9.514;2023-08-08T03:27:57;20.30;71.50
12977;DHT22;6553;48.412;9.514;2023-08-08T03:30:23;20.40;71.60
12977;DHT22;6553;48.412;9.514;2023-08-08T03:32:49;20.40;71.50
12977;DHT22;6553;48.412;9.514;2023-08-08T03:35:14;20.40;71.50
12977;DHT22;6553;48.412;9.514;2023-08-08T03:37:42;20.40;71.50
12977;DHT22;6553;48.412;9.514;2023-08-08T03:40:08;20.40;71.50
12977;DHT22;6553;48.412;9.514;2023-08-08T03:42:34;20.30;71.40
12977;DHT22;6553;48.412;9.514;2023-08-08T03:45:00;20.40;71.50
12977;DHT22;6553;48.412;9.514;2023-08-08T03:47:26;20.30;71.40
12977;DHT22;6553;48.412;9.514;2023-08-08T03:49:54;20.40;71.50
12977;DHT22;6553;48.412;9.514;2023-08-08T03:52:23;20.30;71.30
12977;DHT22;6553;48.412;9.514;2023-08-08T03:54:51;20.30;71.40
12977;DHT22;6553;48.412;9.514;2023-08-08T03:57:17;20.30;71.30
12977;DHT22;6553;48.412;9.514;2023-08-08T03:59:42;20.30;71.40
12977;DHT22;6553;48.412;9.514;2023-08-08T04:02:08;20.40;71.40
12977;DHT22;6553;48.412;9.514;2023-08-08T04:04:34;20.40;71.40
12977;DHT22;6553;48.412;9.514;2023-08-08T04:07:00;20.40;71.60
12977;DHT22;6553;48.412;9.514;2023-08-08T04:09:25;20.40;71.50
12977;DHT22;6553;48.412;9.514;2023-08-08T04:11:51;20.30;71.40
12977;DHT22;6553;48.412;9.514;2023-08-08T04:14:17;20.30;71.40
12977;DHT22;6553;48.412;9.514;2023-08-08T04:16:43;20.30;72.20
12977;DHT22;6553;48.412;9.514;2023-08-08T04:19:09;20.30;71.40
12977;DHT22;6553;48.412;9.514;2023-08-08T04:21:34;20.30;71.50
12977;DHT22;6553;48.412;9.514;2023-08-08T04:24:01;20.30;71.40
12977;DHT22;6553;48.412;9.514;2023-08-08T04:26:27;20.30;71.50
12977;DHT22;6553;48.412;9.514;2023-08-08T04:28:53;20.30;71.50
12977;DHT22;6553;48.412;9.514;2023-08-08T04:31:19;20.30;71.40
12977;DHT22;6553;48.412;9.514;2023-08-08T04:33:45;20.30;71.40
12977;DHT22;6553;48.412;9.514;2023-08-08T04:36:11;20.30;71.40
12977;DHT22;6553;48.412;9.514;2023-08-08T04:38:36;20.30;71.30
12977;DHT22;6553;48.412;9.514;2023-08-08T04:41:02;20.30;71.40
12977;DHT22;6553;48.412;9.514;2023-08-08T04:43:28;20.30;71.40
12977;DHT22;6553;48.412;9.514;2023-08-08T04:45:54;20.30;71.40
12977;DHT22;6553;48.412;9.514;2023-08-08T04:48:20;20.30;71.30
12977;DHT22;6553;48.412;9.514;2023-08-08T04:50:48;20.30;71.40
12977;DHT22;6553;48.412;9.514;2023-08-08T04:53:14;20.30;71.40
12977;DHT22;6553;48.412;9.514;2023-08-08T04:55:40;20.30;71.40
12977;DHT22;6553;48.412;9.514;2023-08-08T04:58:06;20.30;71.40
12977;DHT22;6553;48.412;9.514;2023-08-08T05:00:31;20.30;71.40
12977;DHT22;6553;48.412;9.514;2023-08-08T05:02:57;20.30;71.40
12977;DHT22;6553;48.412;9.514;2023-08-08T05:05:23;20.30;71.30
12977;DHT22;6553;48.412;9.514;2023-08-08T05:07:49;20.30;71.50
12977;DHT22;6553;48.412;9.514;2023-08-08T05:10:14;20.30;71.40
12977;DHT22;6553;48.412;9.514;2023-08-08T05:12:40;20.30;71.50
12977;DHT22;6553;48.412;9.514;2023-08-08T05:15:06;20.30;71.40
12977;DHT22;6553;48.412;9.514;2023-08-08T05:17:33;20.30;71.40
12977;DHT22;6553;48.412;9.514;2023-08-08T05:19:58;20.30;71.40
12977;DHT22;6553;48.412;9.514;2023-08-08T05:22:24;20.30;71.50
12977;DHT22;6553;48.412;9.514;2023-08-08T05:24:50;20.30;71.50
12977;DHT22;6553;48.412;9.514;2023-08-08T05:27:15;20.30;71.40
12977;DHT22;6553;48.412;9.514;2023-08-08T05:29:41;20.30;71.50
12977;DHT22;6553;48.412;9.514;2023-08-08T05:32:07;20.30;71.40
12977;DHT22;6553;48.412;9.514;2023-08-08T05:34:34;20.30;71.40
12977;DHT22;6553;48.412;9.514;2023-08-08T05:37:00;20.30;71.40
12977;DHT22;6553;48.412;9.514;2023-08-08T05:39:25;20.30;71.50
12977;DHT22;6553;48.412;9.514;2023-08-08T05:41:52;20.30;71.40
12977;DHT22;6553;48.412;9.514;2023-08-08T05:44:18;20.30;71.50
12977;DHT22;6553;48.412;9.514;2023-08-08T05:46:43;20.30;71.40
12977;DHT22;6553;48.412;9.514;2023-08-08T05:49:09;20.30;71.50
12977;DHT22;6553;48.412;9.514;2023-08-08T05:51:35;20.30;71.40
12977;DHT22;6553;48.412;9.514;2023-08-08T05:54:01;20.30;71.50
12977;DHT22;6553;48.412;9.514;2023-08-08T05:56:34;20.30;71.50
12977;DHT22;6553;48.412;9.514;2023-08-08T05:59:02;20.30;71.50
12977;DHT22;6553;48.412;9.514;2023-08-08T06:01:28;20.30;71.50
12977;DHT22;6553;48.412;9.514;2023-08-08T06:03:53;20.30;71.50
12977;DHT22;6553;48.412;9.514;2023-08-08T06:06:19;20.30;71.50
12977;DHT22;6553;48.412;9.514;2023-08-08T06:08:45;20.30;71.50
12977;DHT22;6553;48.412;9.514;2023-08-08T06:11:10;20.30;71.50
12977;DHT22;6553;48.412;9.514;2023-08-08T06:13:36;20.30;71.50
12977;DHT22;6553;48.412;9.514;2023-08-08T06:16:02;20.30;71.50
12977;DHT22;6553;48.412;9.514;2023-08-08T06:18:32;20.30;71.50
12977;DHT22;6553;48.412;9.514;2023-08-08T06:20:58;20.30;71.50
12977;DHT22;6553;48.412;9.514;2023-08-08T06:23:24;20.30;71.50
12977;DHT22;6553;48.412;9.514;2023-08-08T06:25:50;20.30;71.40
12977;DHT22;6553;48.412;9.514;2023-08-08T06:28:16;20.30;71.50
12977;DHT22;6553;48.412;9.514;2023-08-08T06:30:41;20.30;71.50
12977;DHT22;6553;48.412;9.514;2023-08-08T06:33:07;20.30;71.50
12977;DHT22;6553;48.412;9.514;2023-08-08T06:35:34;20.30;71.50
12977;DHT22;6553;48.412;9.514;2023-08-08T06:37:59;20.40;71.60
12977;DHT22;6553;48.412;9.514;2023-08-08T06:40:25;20.40;71.60
12977;DHT22;6553;48.412;9.514;2023-08-08T06:42:51;20.40;71.70
12977;DHT22;6553;48.412;9.514;2023-08-08T06:45:17;20.40;71.70
12977;DHT22;6553;48.412;9.514;2023-08-08T06:47:42;20.40;71.70
12977;DHT22;6553;48.412;9.514;2023-08-08T06:50:08;20.40;71.80
12977;DHT22;6553;48.412;9.514;2023-08-08T06:52:34;20.40;71.90
12977;DHT22;6553;48.412;9.514;2023-08-08T06:55:00;20.40;72.00
12977;DHT22;6553;48.412;9.514;2023-08-08T06:57:26;20.30;72.10
12977;DHT22;6553;48.412;9.514;2023-08-08T06:59:53;20.30;72.20
12977;DHT22;6553;48.412;9.514;2023-08-08T07:02:19;20.30;72.30
12977;DHT22;6553;48.412;9.514;2023-08-08T07:04:46;20.30;72.30
12977;DHT22;6553;48.412;9.514;2023-08-08T07:07:12;20.40;72.30
12977;DHT22;6553;48.412;9.514;2023-08-08T07:09:37;20.30;72.10
12977;DHT22;6553;48.412;9.514;2023-08-08T07:12:04;20.30;72.30
12977;DHT22;6553;48.412;9.514;2023-08-08T07:14:30;20.30;72.30
12977;DHT22;6553;48.412;9.514;2023-08-08T07:16:55;20.30;72.40
12977;DHT22;6553;48.412;9.514;2023-08-08T07:19:21;20.30;72.40
12977;DHT22;6553;48.412;9.514;2023-08-08T07:21:47;20.30;72.50
12977;DHT22;6553;48.412;9.514;2023-08-08T07:24:13;20.30;72.40
12977;DHT22;6553;48.412;9.514;2023-08-08T07:26:39;20.30;72.30
12977;DHT22;6553;48.412;9.514;2023-08-08T07:29:05;20.40;72.40
12977;DHT22;6553;48.412;9.514;2023-08-08T07:31:32;20.40;72.30
12977;DHT22;6553;48.412;9.514;2023-08-08T07:33:58;20.40;72.40
12977;DHT22;6553;48.412;9.514;2023-08-08T07:36:24;20.40;72.20
12977;DHT22;6553;48.412;9.514;2023-08-08T07:38:50;20.40;72.10
12977;DHT22;6553;48.412;9.514;2023-08-08T07:41:15;20.40;71.90
12977;DHT22;6553;48.412;9.514;2023-08-08T07:43:41;20.40;71.90
12977;DHT22;6553;48.412;9.514;2023-08-08T07:46:07;20.40;71.90
12977;DHT22;6553;48.412;9.514;2023-08-08T07:48:33;20.40;71.80
12977;DHT22;6553;48.412;9.514;2023-08-08T07:50:58;20.40;71.80
12977;DHT22;6553;48.412;9.514;2023-08-08T07:53:24;20.40;71.50
12977;DHT22;6553;48.412;9.514;2023-08-08T07:55:50;20.50;71.40
12977;DHT22;6553;48.412;9.514;2023-08-08T07:58:15;20.50;71.30
12977;DHT22;6553;48.412;9.514;2023-08-08T08:00:41;20.50;71.00
12977;DHT22;6553;48.412;9.514;2023-08-08T08:03:07;20.50;71.00
12977;DHT22;6553;48.412;9.514;2023-08-08T08:05:32;20.50;71.00
12977;DHT22;6553;48.412;9.514;2023-08-08T08:08:00;20.60;71.10
12977;DHT22;6553;48.412;9.514;2023-08-08T08:10:26;20.60;71.00
12977;DHT22;6553;48.412;9.514;2023-08-08T08:12:51;20.60;71.00
12977;DHT22;6553;48.412;9.514;2023-08-08T08:15:24;20.60;71.10
12977;DHT22;6553;48.412;9.514;2023-08-08T08:17:50;20.70;71.60
12977;DHT22;6553;48.412;9.514;2023-08-08T08:20:16;20.70;71.70
12977;DHT22;6553;48.412;9.514;2023-08-08T08:22:42;20.60;71.60
12977;DHT22;6553;48.412;9.514;2023-08-08T08:25:08;20.70;71.80
12977;DHT22;6553;48.412;9.514;2023-08-08T08:27:37;20.60;71.50
12977;DHT22;6553;48.412;9.514;2023-08-08T08:30:05;20.60;71.50
12977;DHT22;6553;48.412;9.514;2023-08-08T08:32:35;20.60;71.20
12977;DHT22;6553;48.412;9.514;2023-08-08T08:35:03;20.60;71.20
12977;DHT22;6553;48.412;9.514;2023-08-08T08:37:30;20.70;71.20
12977;DHT22;6553;48.412;9.514;2023-08-08T08:39:55;20.60;70.90
12977;DHT22;6553;48.412;9.514;2023-08-08T08:42:22;20.70;70.80
12977;DHT22;6553;48.412;9.514;2023-08-08T08:44:49;20.70;70.60
12977;DHT22;6553;48.412;9.514;2023-08-08T08:47:19;20.70;70.50
12977;DHT22;6553;48.412;9.514;2023-08-08T08:49:45;20.70;70.30
12977;DHT22;6553;48.412;9.514;2023-08-08T08:52:12;20.70;70.00
12977;DHT22;6553;48.412;9.514;2023-08-08T08:54:38;20.70;69.90
12977;DHT22;6553;48.412;9.514;2023-08-08T08:57:04;20.70;69.90
12977;DHT22;6553;48.412;9.514;2023-08-08T08:59:30;20.70;69.90
12977;DHT22;6553;48.412;9.514;2023-08-08T09:01:56;20.70;69.70
12977;DHT22;6553;48.412;9.514;2023-08-08T09:04:23;20.60;67.50
12977;DHT22;6553;48.412;9.514;2023-08-08T09:06:50;20.50;67.60
12977;DHT22;6553;48.412;9.514;2023-08-08T09:09:17;20.60;69.30
12977;DHT22;6553;48.412;9.514;2023-08-08T09:11:48;20.60;69.40
12977;DHT22;6553;48.412;9.514;2023-08-08T09:14:23;20.60;69.00
12977;DHT22;6553;48.412;9.514;2023-08-08T09:16:52;20.70;68.80
12977;DHT22;6553;48.412;9.514;2023-08-08T09:19:19;20.70;68.10
12977;DHT22;6553;48.412;9.514;2023-08-08T09:21:46;20.70;68.00
12977;DHT22;6553;48.412;9.514;2023-08-08T09:24:13;20.70;68.10
12977;DHT22;6553;48.412;9.514;2023-08-08T09:26:40;20.80;68.10
12977;DHT22;6553;48.412;9.514;2023-08-08T09:29:08;20.80;68.10
12977;DHT22;6553;48.412;9.514;2023-08-08T09:31:35;20.80;68.10
12977;DHT22;6553;48.412;9.514;2023-08-08T09:34:02;20.80;68.30
12977;DHT22;6553;48.412;9.514;2023-08-08T09:36:29;20.80;68.30
12977;DHT22;6553;48.412;9.514;2023-08-08T09:38:55;20.80;68.40
12977;DHT22;6553;48.412;9.514;2023-08-08T09:41:22;20.80;68.50
12977;DHT22;6553;48.412;9.514;2023-08-08T09:43:50;20.80;68.50
12977;DHT22;6553;48.412;9.514;2023-08-08T09:46:21;20.80;68.60
12977;DHT22;6553;48.412;9.514;2023-08-08T09:48:48;20.80;68.70
12977;DHT22;6553;48.412;9.514;2023-08-08T09:51:14;20.70;68.70
12977;DHT22;6553;48.412;9.514;2023-08-08T09:53:41;20.80;68.80
12977;DHT22;6553;48.412;9.514;2023-08-08T09:56:07;20.80;69.00
12977;DHT22;6553;48.412;9.514;2023-08-08T09:58:33;20.80;69.10
12977;DHT22;6553;48.412;9.514;2023-08-08T10:01:00;20.80;69.10
12977;DHT22;6553;48.412;9.514;2023-08-08T10:03:26;20.80;69.10
12977;DHT22;6553;48.412;9.514;2023-08-08T10:05:52;20.80;69.10
12977;DHT22;6553;48.412;9.514;2023-08-08T10:08:18;20.80;69.30
12977;DHT22;6553;48.412;9.514;2023-08-08T10:10:46;20.80;69.10
12977;DHT22;6553;48.412;9.514;2023-08-08T10:13:24;20.70;69.40
12977;DHT22;6553;48.412;9.514;2023-08-08T10:15:52;20.70;69.30
12977;DHT22;6553;48.412;9.514;2023-08-08T10:18:21;20.70;69.30
12977;DHT22;6553;48.412;9.514;2023-08-08T10:20:49;20.70;69.40
12977;DHT22;6553;48.412;9.514;2023-08-08T10:23:17;20.70;69.20
12977;DHT22;6553;48.412;9.514;2023-08-08T10:25:45;20.70;69.20
12977;DHT22;6553;48.412;9.514;2023-08-08T10:28:19;20.70;69.20
12977;DHT22;6553;48.412;9.514;2023-08-08T10:30:47;20.70;69.20
12977;DHT22;6553;48.412;9.514;2023-08-08T10:33:25;20.70;69.20
12977;DHT22;6553;48.412;9.514;2023-08-08T10:36:06;20.70;69.20
12977;DHT22;6553;48.412;9.514;2023-08-08T10:38:42;20.70;69.40
12977;DHT22;6553;48.412;9.514;2023-08-08T10:41:11;20.70;69.70
12977;DHT22;6553;48.412;9.514;2023-08-08T10:43:38;20.70;69.50
12977;DHT22;6553;48.412;9.514;2023-08-08T10:46:13;20.70;69.10
12977;DHT22;6553;48.412;9.514;2023-08-08T10:48:52;20.70;69.20
12977;DHT22;6553;48.412;9.514;2023-08-08T10:51:19;20.70;69.40
12977;DHT22;6553;48.412;9.514;2023-08-08T10:53:45;20.70;69.20
12977;DHT22;6553;48.412;9.514;2023-08-08T10:56:14;20.70;69.00
12977;DHT22;6553;48.412;9.514;2023-08-08T10:58:42;20.70;69.20
12977;DHT22;6553;48.412;9.514;2023-08-08T11:01:12;20.70;69.40
12977;DHT22;6553;48.412;9.514;2023-08-08T11:03:40;20.70;69.40
12977;DHT22;6553;48.412;9.514;2023-08-08T11:06:07;20.70;69.40
12977;DHT22;6553;48.412;9.514;2023-08-08T11:08:34;20.70;69.30
12977;DHT22;6553;48.412;9.514;2023-08-08T11:11:04;20.70;69.30
12977;DHT22;6553;48.412;9.514;2023-08-08T11:13:31;20.70;69.20
12977;DHT22;6553;48.412;9.514;2023-08-08T11:15:58;20.70;69.10
12977;DHT22;6553;48.412;9.514;2023-08-08T11:18:24;20.80;69.40
12977;DHT22;6553;48.412;9.514;2023-08-08T11:20:51;20.70;69.40
12977;DHT22;6553;48.412;9.514;2023-08-08T11:23:17;20.70;69.40
12977;DHT22;6553;48.412;9.514;2023-08-08T11:25:45;20.70;69.30
12977;DHT22;6553;48.412;9.514;2023-08-08T11:28:12;20.80;69.80
12977;DHT22;6553;48.412;9.514;2023-08-08T11:30:42;20.70;69.40
12977;DHT22;6553;48.412;9.514;2023-08-08T11:33:09;20.70;69.00
12977;DHT22;6553;48.412;9.514;2023-08-08T11:35:37;20.70;66.40
12977;DHT22;6553;48.412;9.514;2023-08-08T11:38:11;20.70;68.50
12977;DHT22;6553;48.412;9.514;2023-08-08T11:40:38;20.80;69.10
12977;DHT22;6553;48.412;9.514;2023-08-08T11:43:04;20.80;68.30
12977;DHT22;6553;48.412;9.514;2023-08-08T11:45:31;20.90;68.20
12977;DHT22;6553;48.412;9.514;2023-08-08T11:47:57;20.90;67.90
12977;DHT22;6553;48.412;9.514;2023-08-08T11:50:25;21.00;68.00
12977;DHT22;6553;48.412;9.514;2023-08-08T11:52:53;21.00;67.80
12977;DHT22;6553;48.412;9.514;2023-08-08T11:55:21;21.00;67.80
12977;DHT22;6553;48.412;9.514;2023-08-08T11:57:54;21.00;67.80
12977;DHT22;6553;48.412;9.514;2023-08-08T12:00:30;21.00;68.00
12977;DHT22;6553;48.412;9.514;2023-08-08T12:02:56;21.00;68.00
12977;DHT22;6553;48.412;9.514;2023-08-08T12:05:23;21.00;68.10
12977;DHT22;6553;48.412;9.514;2023-08-08T12:07:49;21.00;68.00
12977;DHT22;6553;48.412;9.514;2023-08-08T12:10:20;21.10;68.40
12977;DHT22;6553;48.412;9.514;2023-08-08T12:12:53;21.10;68.40
12977;DHT22;6553;48.412;9.514;2023-08-08T12:15:21;21.10;68.70
12977;DHT22;6553;48.412;9.514;2023-08-08T12:17:46;21.10;68.70
12977;DHT22;6553;48.412;9.514;2023-08-08T12:20:15;21.10;68.80
12977;DHT22;6553;48.412;9.514;2023-08-08T12:22:41;21.10;68.80
12977;DHT22;6553;48.412;9.514;2023-08-08T12:25:06;21.10;69.00
12977;DHT22;6553;48.412;9.514;2023-08-08T12:27:33;21.10;68.90
12977;DHT22;6553;48.412;9.514;2023-08-08T12:30:00;21.10;69.00
12977;DHT22;6553;48.412;9.514;2023-08-08T12:32:26;21.10;68.90
12977;DHT22;6553;48.412;9.514;2023-08-08T12:34:55;21.10;68.90
12977;DHT22;6553;48.412;9.514;2023-08-08T12:37:22;21.10;69.00
12977;DHT22;6553;48.412;9.514;2023-08-08T12:39:49;21.10;69.00
12977;DHT22;6553;48.412;9.514;2023-08-08T12:42:15;21.10;68.60
12977;DHT22;6553;48.412;9.514;2023-08-08T12:44:41;21.10;68.90
12977;DHT22;6553;48.412;9.514;2023-08-08T12:47:08;21.20;68.90
12977;DHT22;6553;48.412;9.514;2023-08-08T12:49:33;21.10;68.80
12977;DHT22;6553;48.412;9.514;2023-08-08T12:51:59;21.20;68.90
12977;DHT22;6553;48.412;9.514;2023-08-08T12:54:25;21.10;68.90
12977;DHT22;6553;48.412;9.514;2023-08-08T12:56:51;21.10;69.10
12977;DHT22;6553;48.412;9.514;2023-08-08T12:59:17;21.10;68.90
12977;DHT22;6553;48.412;9.514;2023-08-08T13:01:42;21.10;69.10
12977;DHT22;6553;48.412;9.514;2023-08-08T13:04:08;21.20;69.30
12977;DHT22;6553;48.412;9.514;2023-08-08T13:06:34;21.20;69.20
12977;DHT22;6553;48.412;9.514;2023-08-08T13:09:00;21.20;69.20
12977;DHT22;6553;48.412;9.514;2023-08-08T13:11:29;21.20;69.20
12977;DHT22;6553;48.412;9.514;2023-08-08T13:13:54;21.20;69.30
12977;DHT22;6553;48.412;9.514;2023-08-08T13:16:20;21.20;69.30
12977;DHT22;6553;48.412;9.514;2023-08-08T13:18:46;21.20;69.30
12977;DHT22;6553;48.412;9.514;2023-08-08T13:21:11;21.20;69.10
12977;DHT22;6553;48.412;9.514;2023-08-08T13:23:38;21.20;70.10
12977;DHT22;6553;48.412;9.514;2023-08-08T13:26:05;21.20;69.00
12977;DHT22;6553;48.412;9.514;2023-08-08T13:28:31;21.20;69.30
12977;DHT22;6553;48.412;9.514;2023-08-08T13:30:57;21.20;70.10
12977;DHT22;6553;48.412;9.514;2023-08-08T13:33:23;21.20;69.50
12977;DHT22;6553;48.412;9.514;2023-08-08T13:35:49;21.20;69.30
12977;DHT22;6553;48.412;9.514;2023-08-08T13:38:15;21.20;69.30
12977;DHT22;6553;48.412;9.514;2023-08-08T13:40:44;21.20;69.30
12977;DHT22;6553;48.412;9.514;2023-08-08T13:43:10;21.10;69.10
12977;DHT22;6553;48.412;9.514;2023-08-08T13:45:36;21.20;69.30
12977;DHT22;6553;48.412;9.514;2023-08-08T13:48:02;21.20;69.20
12977;DHT22;6553;48.412;9.514;2023-08-08T13:50:28;21.20;69.20
12977;DHT22;6553;48.412;9.514;2023-08-08T13:52:54;21.20;69.20
12977;DHT22;6553;48.412;9.514;2023-08-08T13:55:20;21.20;69.40
12977;DHT22;6553;48.412;9.514;2023-08-08T13:57:46;21.20;69.40
12977;DHT22;6553;48.412;9.514;2023-08-08T14:00:12;21.20;69.40
12977;DHT22;6553;48.412;9.514;2023-08-08T14:02:38;21.20;69.50
12977;DHT22;6553;48.412;9.514;2023-08-08T14:05:05;21.20;69.40
12977;DHT22;6553;48.412;9.514;2023-08-08T14:07:35;21.20;69.50
12977;DHT22;6553;48.412;9.514;2023-08-08T14:10:02;21.20;69.50
12977;DHT22;6553;48.412;9.514;2023-08-08T14:12:29;21.20;69.40
12977;DHT22;6553;48.412;9.514;2023-08-08T14:14:55;21.20;69.50
12977;DHT22;6553;48.412;9.514;2023-08-08T14:17:21;21.20;69.30
12977;DHT22;6553;48.412;9.514;2023-08-08T14:19:47;21.20;69.40
12977;DHT22;6553;48.412;9.514;2023-08-08T14:22:13;21.20;69.10
12977;DHT22;6553;48.412;9.514;2023-08-08T14:24:40;21.20;69.20
12977;DHT22;6553;48.412;9.514;2023-08-08T14:27:07;21.20;69.20
12977;DHT22;6553;48.412;9.514;2023-08-08T14:29:33;21.20;69.10
12977;DHT22;6553;48.412;9.514;2023-08-08T14:31:58;21.20;69.40
12977;DHT22;6553;48.412;9.514;2023-08-08T14:34:31;21.20;69.30
12977;DHT22;6553;48.412;9.514;2023-08-08T14:36:59;21.20;69.40
12977;DHT22;6553;48.412;9.514;2023-08-08T14:39:27;21.20;69.30
12977;DHT22;6553;48.412;9.514;2023-08-08T14:41:53;21.20;69.40
12977;DHT22;6553;48.412;9.514;2023-08-08T14:44:19;21.20;69.50
12977;DHT22;6553;48.412;9.514;2023-08-08T14:46:44;21.20;69.50
12977;DHT22;6553;48.412;9.514;2023-08-08T14:49:10;21.20;69.50
12977;DHT22;6553;48.412;9.514;2023-08-08T14:51:36;21.20;69.60
12977;DHT22;6553;48.412;9.514;2023-08-08T14:54:02;21.20;69.60
12977;DHT22;6553;48.412;9.514;2023-08-08T14:56:28;21.20;69.60
12977;DHT22;6553;48.412;9.514;2023-08-08T14:58:54;21.20;69.70
12977;DHT22;6553;48.412;9.514;2023-08-08T15:01:21;21.20;69.50
12977;DHT22;6553;48.412;9.514;2023-08-08T15:03:47;21.20;69.60
12977;DHT22;6553;48.412;9.514;2023-08-08T15:06:13;21.20;69.70
12977;DHT22;6553;48.412;9.514;2023-08-08T15:08:38;21.20;69.70
12977;DHT22;6553;48.412;9.514;2023-08-08T15:11:04;21.20;69.50
12977;DHT22;6553;48.412;9.514;2023-08-08T15:13:31;21.20;69.60
12977;DHT22;6553;48.412;9.514;2023-08-08T15:15:56;21.20;69.40
12977;DHT22;6553;48.412;9.514;2023-08-08T15:18:22;21.20;69.70
12977;DHT22;6553;48.412;9.514;2023-08-08T15:20:48;21.20;69.70
12977;DHT22;6553;48.412;9.514;2023-08-08T15:23:14;21.20;69.50
12977;DHT22;6553;48.412;9.514;2023-08-08T15:25:43;21.20;69.50
12977;DHT22;6553;48.412;9.514;2023-08-08T15:28:09;21.20;69.80
12977;DHT22;6553;48.412;9.514;2023-08-08T15:30:37;21.20;69.70
12977;DHT22;6553;48.412;9.514;2023-08-08T15:33:04;21.20;69.70
12977;DHT22;6553;48.412;9.514;2023-08-08T15:35:29;21.30;69.70
12977;DHT22;6553;48.412;9.514;2023-08-08T15:37:55;21.20;69.50
12977;DHT22;6553;48.412;9.514;2023-08-08T15:40:24;21.20;69.50
12977;DHT22;6553;48.412;9.514;2023-08-08T15:42:51;21.30;69.70
12977;DHT22;6553;48.412;9.514;2023-08-08T15:45:17;21.30;69.80